sensor_id;sensor_type;location;lat;lon;timestamp;temperature;humidity
216;HTU21D;70668;48.81286795;9.14184224;2023-12-14T00:00:11;6.83;105.67
216;HTU21D;70668;48.81286795;9.14184224;2023-12-14T00:02:40;7.04;104.98
216;HTU21D;70668;48.81286795;9.14184224;2023-12-14T00:05:11;6.57;105.63
216;HTU21D;70668;48.81286795;9.14184224;2023-12-14T00:07:39;6.65;106.36
216;HTU21D;70668;48.81286795;9.14184224;2023-12-14T00:10:08;6.46;107.48
216;HTU21D;70668;48.81286795;9.14184224;2023-12-14T00:12:37;6.44;107.94
216;HTU21D;70668;48.81286795;9.14184224;2023-12-14T00:15:07;6.35;108.44
216;HTU21D;70668;48.81286795;9.14184224;2023-12-14T00:17:36;6.50;107.06
216;HTU21D;70668;48.81286795;9.14184224;2023-12-14T00:20:06;6.51;107.95
216;HTU21D;70668;48.81286795;9.14184224;2023-12-14T00:22:37;6.51;107.40
216;HTU21D;70668;48.81286795;9.14184224;2023-12-14T00:25:06;6.72;106.72
216;HTU21D;70668;48.81286795;9.14184224;2023-12-14T00:27:35;6.71;107.52
216;HTU21D;70668;48.81286795;9.14184224;2023-12-14T00:30:05;6.88;106.17
216;HTU21D;70668;48.81286795;9.14184224;2023-12-14T00:32:33;6.86;105.89
216;HTU21D;70668;48.81286795;9.14184224;2023-12-14T00:35:03;6.88;105.79
216;HTU21D;70668;48.81286795;9.14184224;2023-12-14T00:37:31;6.59;106.70
216;HTU21D;70668;48.81286795;9.14184224;2023-12-14T00:40:02;6.59;107.95
216;HTU21D;70668;48.81286795;9.14184224;2023-12-14T00:42:31;6.48;107.96
216;HTU21D;70668;48.81286795;9.14184224;2023-12-14T00:44:59;6.43;108.17
216;HTU21D;70668;48.81286795;9.14184224;2023-12-14T00:47:28;6.65;108.06
216;HTU21D;70668;48.81286795;9.14184224;2023-12-14T00:49:56;6.59;107.18
216;HTU21D;70668;48.81286795;9.14184224;2023-12-14T00:52:25;6.65;107.57
216;HTU21D;70668;48.81286795;9.14184224;2023-12-14T00:54:54;6.43;107.90
216;HTU21D;70668;48.81286795;9.14184224;2023-12-14T00:57:25;6.37;108.15
216;HTU21D;70668;48.81286795;9.14184224;2023-12-14T00:59:53;6.38;108.02
216;HTU21D;70668;48.81286795;9.14184224;2023-12-14T01:02:22;6.45;108.17
216;HTU21D;70668;48.81286795;9.14184224;2023-12-14T01:04:50;6.53;107.74
216;HTU21D;70668;48.81286795;9.14184224;2023-12-14T01:07:19;6.57;108.43
216;HTU21D;70668;48.81286795;9.14184224;2023-12-14T01:09:47;6.67;107.62
216;HTU21D;70668;48.81286795;9.14184224;2023-12-14T01:12:16;6.72;107.28
216;HTU21D;70668;48.81286795;9.14184224;2023-12-14T01:14:47;6.79;107.10
216;HTU21D;70668;48.81286795;9.14184224;2023-12-14T01:17:15;6.91;107.18
216;HTU21D;70668;48.81286795;9.14184224;2023-12-14T01:19:44;6.95;106.95
216;HTU21D;70668;48.81286795;9.14184224;2023-12-14T01:22:12;6.91;107.27
216;HTU21D;70668;48.81286795;9.14184224;2023-12-14T01:24:41;6.83;106.59
216;HTU21D;70668;48.81286795;9.14184224;2023-12-14T01:27:09;6.67;107.65
216;HTU21D;70668;48.81286795;9.14184224;2023-12-14T01:29:39;6.78;107.33
216;HTU21D;70668;48.81286795;9.14184224;2023-12-14T01:32:10;6.66;108.46
216;HTU21D;70668;48.81286795;9.14184224;2023-12-14T01:34:39;6.73;106.98
216;HTU21D;70668;48.81286795;9.14184224;2023-12-14T01:37:08;6.58;108.66
216;HTU21D;70668;48.81286795;9.14184224;2023-12-14T01:39:36;6.53;108.71
216;HTU21D;70668;48.81286795;9.14184224;2023-12-14T01:42:04;6.63;108.89
216;HTU21D;70668;48.81286795;9.14184224;2023-12-14T01:44:33;6.53;108.87
216;HTU21D;70668;48.81286795;9.14184224;2023-12-14T01:47:01;6.51;108.28
216;HTU21D;70668;48.81286795;9.14184224;2023-12-14T01:49:33;6.40;108.69
216;HTU21D;70668;48.81286795;9.14184224;2023-12-14T01:52:01;6.58;108.01
216;HTU21D;70668;48.81286795;9.14184224;2023-12-14T01:54:29;6.54;108.23
216;HTU21D;70668;48.81286795;9.14184224;2023-12-14T01:56:59;6.33;108.60
216;HTU21D;70668;48.81286795;9.14184224;2023-12-14T01:59:27;6.37;108.73
216;HTU21D;70668;48.81286795;9.14184224;2023-12-14T02:01:56;6.61;107.66
216;HTU21D;70668;48.81286795;9.14184224;2023-12-14T02:04:26;6.43;107.36
216;HTU21D;70668;48.81286795;9.14184224;2023-12-14T02:06:58;6.38;107.68
216;HTU21D;70668;48.81286795;9.14184224;2023-12-14T02:09:27;6.28;107.86
216;HTU21D;70668;48.81286795;9.14184224;2023-12-14T02:11:55;6.19;108.43
216;HTU21D;70668;48.81286795;9.14184224;2023-12-14T02:14:24;6.29;107.69
216;HTU21D;70668;48.81286795;9.14184224;2023-12-14T02:16:52;6.17;107.78
216;HTU21D;70668;48.81286795;9.14184224;2023-12-14T02:19:21;6.60;106.59
216;HTU21D;70668;48.81286795;9.14184224;2023-12-14T02:21:49;6.38;106.79
216;HTU21D;70668;48.81286795;9.14184224;2023-12-14T02:24:20;6.66;106.98
216;HTU21D;70668;48.81286795;9.14184224;2023-12-14T02:26:49;6.34;107.32
216;HTU21D;70668;48.81286795;9.14184224;2023-12-14T02:29:17;6.55;107.01
216;HTU21D;70668;48.81286795;9.14184224;2023-12-14T02:31:46;6.39;107.46
216;HTU21D;70668;48.81286795;9.14184224;2023-12-14T02:34:15;6.41;107.77
216;HTU21D;70668;48.81286795;9.14184224;2023-12-14T02:36:45;6.34;107.69
216;HTU21D;70668;48.81286795;9.14184224;2023-12-14T02:39:14;6.26;108.49
216;HTU21D;70668;48.81286795;9.14184224;2023-12-14T02:41:45;6.39;108.32
216;HTU21D;70668;48.81286795;9.14184224;2023-12-14T02:44:13;6.29;107.85
216;HTU21D;70668;48.81286795;9.14184224;2023-12-14T02:46:42;6.55;108.25
216;HTU21D;70668;48.81286795;9.14184224;2023-12-14T02:49:10;6.44;108.24
216;HTU21D;70668;48.81286795;9.14184224;2023-12-14T02:51:39;6.39;108.20
216;HTU21D;70668;48.81286795;9.14184224;2023-12-14T02:54:07;6.37;107.87
216;HTU21D;70668;48.81286795;9.14184224;2023-12-14T02:56:36;6.25;108.78
216;HTU21D;70668;48.81286795;9.14184224;2023-12-14T02:59:07;6.51;108.81
216;HTU21D;70668;48.81286795;9.14184224;2023-12-14T03:01:35;6.31;108.67
216;HTU21D;70668;48.81286795;9.14184224;2023-12-14T03:04:05;6.25;108.93
216;HTU21D;70668;48.81286795;9.14184224;2023-12-14T03:06:34;6.37;108.93
216;HTU21D;70668;48.81286795;9.14184224;2023-12-14T03:09:03;6.33;109.11
216;HTU21D;70668;48.81286795;9.14184224;2023-12-14T03:11:31;6.26;109.25
216;HTU21D;70668;48.81286795;9.14184224;2023-12-14T03:14:00;6.37;109.50
216;HTU21D;70668;48.81286795;9.14184224;2023-12-14T03:16:31;6.26;109.14
216;HTU21D;70668;48.81286795;9.14184224;2023-12-14T03:19:01;6.40;109.40
216;HTU21D;70668;48.81286795;9.14184224;2023-12-14T03:21:29;6.36;109.30
216;HTU21D;70668;48.81286795;9.14184224;2023-12-14T03:23:58;6.45;108.65
216;HTU21D;70668;48.81286795;9.14184224;2023-12-14T03:26:26;6.56;108.49
216;HTU21D;70668;48.81286795;9.14184224;2023-12-14T03:28:55;6.44;109.01
216;HTU21D;70668;48.81286795;9.14184224;2023-12-14T03:31:23;6.42;109.17
216;HTU21D;70668;48.81286795;9.14184224;2023-12-14T03:33:54;6.55;109.14
216;HTU21D;70668;48.81286795;9.14184224;2023-12-14T03:36:23;6.60;109.20
216;HTU21D;70668;48.81286795;9.14184224;2023-12-14T03:38:52;6.76;108.80
216;HTU21D;70668;48.81286795;9.14184224;2023-12-14T03:41:20;6.63;108.49
216;HTU21D;70668;48.81286795;9.14184224;2023-12-14T03:43:49;6.45;108.85
216;HTU21D;70668;48.81286795;9.14184224;2023-12-14T03:46:17;6.38;109.10
216;HTU21D;70668;48.81286795;9.14184224;2023-12-14T03:48:45;6.34;109.46
216;HTU21D;70668;48.81286795;9.14184224;2023-12-14T03:51:17;6.33;109.72
216;HTU21D;70668;48.81286795;9.14184224;2023-12-14T03:53:46;6.31;109.96
216;HTU21D;70668;48.81286795;9.14184224;2023-12-14T03:56:14;6.26;109.93
216;HTU21D;70668;48.81286795;9.14184224;2023-12-14T03:58:43;6.55;110.07
216;HTU21D;70668;48.81286795;9.14184224;2023-12-14T04:01:16;6.56;109.52
216;HTU21D;70668;48.81286795;9.14184224;2023-12-14T04:03:45;6.60;109.16
216;HTU21D;70668;48.81286795;9.14184224;2023-12-14T04:06:16;6.44;108.20
216;HTU21D;70668;48.81286795;9.14184224;2023-12-14T04:08:45;6.52;108.33
216;HTU21D;70668;48.81286795;9.14184224;2023-12-14T04:11:13;6.48;107.91
216;HTU21D;70668;48.81286795;9.14184224;2023-12-14T04:13:42;6.52;107.63
216;HTU21D;70668;48.81286795;9.14184224;2023-12-14T04:16:10;6.51;107.73
216;HTU21D;70668;48.81286795;9.14184224;2023-12-14T04:18:39;6.63;106.90
216;HTU21D;70668;48.81286795;9.14184224;2023-12-14T04:21:07;6.49;107.22
216;HTU21D;70668;48.81286795;9.14184224;2023-12-14T04:23:38;6.57;107.54
216;HTU21D;70668;48.81286795;9.14184224;2023-12-14T04:26:07;6.67;107.91
216;HTU21D;70668;48.81286795;9.14184224;2023-12-14T04:28:36;6.59;107.46
216;HTU21D;70668;48.81286795;9.14184224;2023-12-14T04:31:04;6.55;107.69
216;HTU21D;70668;48.81286795;9.14184224;2023-12-14T04:33:33;6.39;108.12
216;HTU21D;70668;48.81286795;9.14184224;2023-12-14T04:36:01;6.51;108.16
216;HTU21D;70668;48.81286795;9.14184224;2023-12-14T04:38:30;6.50;107.87
216;HTU21D;70668;48.81286795;9.14184224;2023-12-14T04:41:01;6.39;108.85
216;HTU21D;70668;48.81286795;9.14184224;2023-12-14T04:43:29;6.51;108.46
216;HTU21D;70668;48.81286795;9.14184224;2023-12-14T04:45:58;6.38;108.70
216;HTU21D;70668;48.81286795;9.14184224;2023-12-14T04:48:26;6.41;108.28
216;HTU21D;70668;48.81286795;9.14184224;2023-12-14T04:50:55;6.45;108.49
216;HTU21D;70668;48.81286795;9.14184224;2023-12-14T04:53:23;6.46;108.56
216;HTU21D;70668;48.81286795;9.14184224;2023-12-14T04:55:52;6.52;107.88
216;HTU21D;70668;48.81286795;9.14184224;2023-12-14T04:58:23;6.58;107.33
216;HTU21D;70668;48.81286795;9.14184224;2023-12-14T05:00:51;6.48;107.85
216;HTU21D;70668;48.81286795;9.14184224;2023-12-14T05:03:20;6.56;107.95
216;HTU21D;70668;48.81286795;9.14184224;2023-12-14T05:05:48;6.72;108.06
216;HTU21D;70668;48.81286795;9.14184224;2023-12-14T05:08:17;6.67;107.86
216;HTU21D;70668;48.81286795;9.14184224;2023-12-14T05:10:45;6.71;107.16
216;HTU21D;70668;48.81286795;9.14184224;2023-12-14T05:13:13;6.75;107.61
216;HTU21D;70668;48.81286795;9.14184224;2023-12-14T05:15:45;6.60;107.03
216;HTU21D;70668;48.81286795;9.14184224;2023-12-14T05:18:13;6.58;107.66
216;HTU21D;70668;48.81286795;9.14184224;2023-12-14T05:20:42;6.61;107.68
216;HTU21D;70668;48.81286795;9.14184224;2023-12-14T05:23:11;6.65;107.72
216;HTU21D;70668;48.81286795;9.14184224;2023-12-14T05:25:39;6.56;108.07
216;HTU21D;70668;48.81286795;9.14184224;2023-12-14T05:28:08;6.61;108.16
216;HTU21D;70668;48.81286795;9.14184224;2023-12-14T05:30:36;6.73;108.17
216;HTU21D;70668;48.81286795;9.14184224;2023-12-14T05:33:08;6.75;108.06
216;HTU21D;70668;48.81286795;9.14184224;2023-12-14T05:35:36;6.71;108.35
216;HTU21D;70668;48.81286795;9.14184224;2023-12-14T05:38:05;6.82;107.58
216;HTU21D;70668;48.81286795;9.14184224;2023-12-14T05:40:33;6.72;107.55
216;HTU21D;70668;48.81286795;9.14184224;2023-12-14T05:43:02;6.72;107.56
216;HTU21D;70668;48.81286795;9.14184224;2023-12-14T05:45:30;6.73;107.39
216;HTU21D;70668;48.81286795;9.14184224;2023-12-14T05:47:59;6.78;107.40
216;HTU21D;70668;48.81286795;9.14184224;2023-12-14T05:50:33;6.71;107.13
216;HTU21D;70668;48.81286795;9.14184224;2023-12-14T05:53:01;6.79;107.22
216;HTU21D;70668;48.81286795;9.14184224;2023-12-14T05:55:30;6.76;107.62
216;HTU21D;70668;48.81286795;9.14184224;2023-12-14T05:57:58;6.86;107.15
216;HTU21D;70668;48.81286795;9.14184224;2023-12-14T06:00:27;6.69;107.99
216;HTU21D;70668;48.81286795;9.14184224;2023-12-14T06:02:55;6.70;108.23
216;HTU21D;70668;48.81286795;9.14184224;2023-12-14T06:05:24;6.78;108.18
216;HTU21D;70668;48.81286795;9.14184224;2023-12-14T06:07:55;6.71;108.68
216;HTU21D;70668;48.81286795;9.14184224;2023-12-14T06:10:23;6.73;108.67
216;HTU21D;70668;48.81286795;9.14184224;2023-12-14T06:12:52;6.72;108.66
216;HTU21D;70668;48.81286795;9.14184224;2023-12-14T06:15:20;6.63;109.17
216;HTU21D;70668;48.81286795;9.14184224;2023-12-14T06:17:49;6.73;108.45
216;HTU21D;70668;48.81286795;9.14184224;2023-12-14T06:20:17;6.88;107.75
216;HTU21D;70668;48.81286795;9.14184224;2023-12-14T06:22:46;6.68;108.78
216;HTU21D;70668;48.81286795;9.14184224;2023-12-14T06:25:17;6.75;107.96
216;HTU21D;70668;48.81286795;9.14184224;2023-12-14T06:27:45;6.81;108.31
216;HTU21D;70668;48.81286795;9.14184224;2023-12-14T06:30:15;6.74;108.61
216;HTU21D;70668;48.81286795;9.14184224;2023-12-14T06:32:43;6.75;107.93
216;HTU21D;70668;48.81286795;9.14184224;2023-12-14T06:35:12;6.82;107.82
216;HTU21D;70668;48.81286795;9.14184224;2023-12-14T06:37:40;6.91;108.04
216;HTU21D;70668;48.81286795;9.14184224;2023-12-14T06:40:10;6.88;107.90
216;HTU21D;70668;48.81286795;9.14184224;2023-12-14T06:42:42;6.83;108.22
216;HTU21D;70668;48.81286795;9.14184224;2023-12-14T06:45:10;6.89;108.52
216;HTU21D;70668;48.81286795;9.14184224;2023-12-14T06:47:39;6.75;108.35
216;HTU21D;70668;48.81286795;9.14184224;2023-12-14T06:50:10;6.91;108.07
216;HTU21D;70668;48.81286795;9.14184224;2023-12-14T06:52:39;6.84;108.18
216;HTU21D;70668;48.81286795;9.14184224;2023-12-14T06:55:08;6.91;107.82
216;HTU21D;70668;48.81286795;9.14184224;2023-12-14T06:57:37;6.86;107.89
216;HTU21D;70668;48.81286795;9.14184224;2023-12-14T07:00:10;6.90;107.78
216;HTU21D;70668;48.81286795;9.14184224;2023-12-14T07:02:38;6.91;107.20
216;HTU21D;70668;48.81286795;9.14184224;2023-12-14T07:05:07;6.96;107.50
216;HTU21D;70668;48.81286795;9.14184224;2023-12-14T07:07:36;6.96;107.42
216;HTU21D;70668;48.81286795;9.14184224;2023-12-14T07:10:05;6.96;107.32
216;HTU21D;70668;48.81286795;9.14184224;2023-12-14T07:12:34;6.88;107.43
216;HTU21D;70668;48.81286795;9.14184224;2023-12-14T07:15:03;6.83;107.48
216;HTU21D;70668;48.81286795;9.14184224;2023-12-14T07:17:34;6.85;107.83
216;HTU21D;70668;48.81286795;9.14184224;2023-12-14T07:20:07;6.80;107.54
216;HTU21D;70668;48.81286795;9.14184224;2023-12-14T07:22:35;6.88;108.07
216;HTU21D;70668;48.81286795;9.14184224;2023-12-14T07:25:04;7.11;107.72
216;HTU21D;70668;48.81286795;9.14184224;2023-12-14T07:27:32;6.99;107.45
216;HTU21D;70668;48.81286795;9.14184224;2023-12-14T07:30:01;6.95;108.09
216;HTU21D;70668;48.81286795;9.14184224;2023-12-14T07:32:29;6.99;107.91
216;HTU21D;70668;48.81286795;9.14184224;2023-12-14T07:35:00;6.98;108.48
216;HTU21D;70668;48.81286795;9.14184224;2023-12-14T07:37:29;6.91;108.62
216;HTU21D;70668;48.81286795;9.14184224;2023-12-14T07:39:57;6.99;108.46
216;HTU21D;70668;48.81286795;9.14184224;2023-12-14T07:42:26;6.87;108.92
216;HTU21D;70668;48.81286795;9.14184224;2023-12-14T07:44:54;6.95;108.99
216;HTU21D;70668;48.81286795;9.14184224;2023-12-14T07:47:23;7.08;108.81
216;HTU21D;70668;48.81286795;9.14184224;2023-12-14T07:49:51;7.01;108.54
216;HTU21D;70668;48.81286795;9.14184224;2023-12-14T07:52:23;7.08;108.32
216;HTU21D;70668;48.81286795;9.14184224;2023-12-14T07:54:51;7.14;107.42
216;HTU21D;70668;48.81286795;9.14184224;2023-12-14T07:57:19;7.19;107.19
216;HTU21D;70668;48.81286795;9.14184224;2023-12-14T07:59:49;7.18;107.26
216;HTU21D;70668;48.81286795;9.14184224;2023-12-14T08:02:17;7.14;107.05
216;HTU21D;70668;48.81286795;9.14184224;2023-12-14T08:04:46;7.25;107.30
216;HTU21D;70668;48.81286795;9.14184224;2023-12-14T08:07:14;7.25;106.85
216;HTU21D;70668;48.81286795;9.14184224;2023-12-14T08:09:46;7.28;107.04
216;HTU21D;70668;48.81286795;9.14184224;2023-12-14T08:12:14;7.09;106.51
216;HTU21D;70668;48.81286795;9.14184224;2023-12-14T08:14:42;7.12;107.20
216;HTU21D;70668;48.81286795;9.14184224;2023-12-14T08:17:11;7.22;107.66
216;HTU21D;70668;48.81286795;9.14184224;2023-12-14T08:19:39;7.16;107.76
216;HTU21D;70668;48.81286795;9.14184224;2023-12-14T08:22:08;7.22;107.43
216;HTU21D;70668;48.81286795;9.14184224;2023-12-14T08:24:38;7.23;106.71
216;HTU21D;70668;48.81286795;9.14184224;2023-12-14T08:27:09;7.11;107.89
216;HTU21D;70668;48.81286795;9.14184224;2023-12-14T08:29:37;7.23;107.95
216;HTU21D;70668;48.81286795;9.14184224;2023-12-14T08:32:06;7.15;107.74
216;HTU21D;70668;48.81286795;9.14184224;2023-12-14T08:34:35;7.08;106.61
216;HTU21D;70668;48.81286795;9.14184224;2023-12-14T08:37:04;7.18;107.13
216;HTU21D;70668;48.81286795;9.14184224;2023-12-14T08:39:32;7.02;107.19
216;HTU21D;70668;48.81286795;9.14184224;2023-12-14T08:42:00;6.98;108.27
216;HTU21D;70668;48.81286795;9.14184224;2023-12-14T08:44:31;7.22;107.02
216;HTU21D;70668;48.81286795;9.14184224;2023-12-14T08:47:00;7.22;107.32
216;HTU21D;70668;48.81286795;9.14184224;2023-12-14T08:49:30;7.29;106.37
216;HTU21D;70668;48.81286795;9.14184224;2023-12-14T08:51:58;7.47;106.48
216;HTU21D;70668;48.81286795;9.14184224;2023-12-14T08:54:27;7.58;106.63
216;HTU21D;70668;48.81286795;9.14184224;2023-12-14T08:56:55;7.59;106.93
216;HTU21D;70668;48.81286795;9.14184224;2023-12-14T08:59:26;7.63;106.96
216;HTU21D;70668;48.81286795;9.14184224;2023-12-14T09:01:58;7.56;107.12
216;HTU21D;70668;48.81286795;9.14184224;2023-12-14T09:04:26;7.63;107.08
216;HTU21D;70668;48.81286795;9.14184224;2023-12-14T09:06:55;7.53;107.16
216;HTU21D;70668;48.81286795;9.14184224;2023-12-14T09:09:23;7.45;107.50
216;HTU21D;70668;48.81286795;9.14184224;2023-12-14T09:11:52;7.49;107.53
216;HTU21D;70668;48.81286795;9.14184224;2023-12-14T09:14:20;7.52;107.14
216;HTU21D;70668;48.81286795;9.14184224;2023-12-14T09:16:49;7.46;107.44
216;HTU21D;70668;48.81286795;9.14184224;2023-12-14T09:19:20;7.60;106.66
216;HTU21D;70668;48.81286795;9.14184224;2023-12-14T09:21:48;7.75;106.76
216;HTU21D;70668;48.81286795;9.14184224;2023-12-14T09:24:17;7.68;106.39
216;HTU21D;70668;48.81286795;9.14184224;2023-12-14T09:26:45;7.67;106.37
216;HTU21D;70668;48.81286795;9.14184224;2023-12-14T09:29:14;7.65;106.57
216;HTU21D;70668;48.81286795;9.14184224;2023-12-14T09:31:43;7.59;106.59
216;HTU21D;70668;48.81286795;9.14184224;2023-12-14T09:34:12;7.67;106.87
216;HTU21D;70668;48.81286795;9.14184224;2023-12-14T09:36:43;7.79;105.86
216;HTU21D;70668;48.81286795;9.14184224;2023-12-14T09:39:11;7.82;105.71
216;HTU21D;70668;48.81286795;9.14184224;2023-12-14T09:41:41;7.90;105.23
216;HTU21D;70668;48.81286795;9.14184224;2023-12-14T09:44:11;7.83;105.85
216;HTU21D;70668;48.81286795;9.14184224;2023-12-14T09:46:41;7.78;105.37
216;HTU21D;70668;48.81286795;9.14184224;2023-12-14T09:49:15;8.01;105.01
216;HTU21D;70668;48.81286795;9.14184224;2023-12-14T09:51:46;7.73;105.37
216;HTU21D;70668;48.81286795;9.14184224;2023-12-14T09:54:15;7.78;106.07
216;HTU21D;70668;48.81286795;9.14184224;2023-12-14T09:56:47;8.13;105.95
216;HTU21D;70668;48.81286795;9.14184224;2023-12-14T09:59:17;8.29;105.47
216;HTU21D;70668;48.81286795;9.14184224;2023-12-14T10:01:46;8.19;104.72
216;HTU21D;70668;48.81286795;9.14184224;2023-12-14T10:04:16;7.97;104.98
216;HTU21D;70668;48.81286795;9.14184224;2023-12-14T10:06:48;8.13;105.18
216;HTU21D;70668;48.81286795;9.14184224;2023-12-14T10:09:22;8.05;104.17
216;HTU21D;70668;48.81286795;9.14184224;2023-12-14T10:12:02;8.17;104.73
216;HTU21D;70668;48.81286795;9.14184224;2023-12-14T10:14:31;8.41;104.92
216;HTU21D;70668;48.81286795;9.14184224;2023-12-14T10:17:13;8.43;104.34
216;HTU21D;70668;48.81286795;9.14184224;2023-12-14T10:19:42;8.56;103.67
216;HTU21D;70668;48.81286795;9.14184224;2023-12-14T10:22:15;8.66;103.95
216;HTU21D;70668;48.81286795;9.14184224;2023-12-14T10:24:43;8.59;103.05
216;HTU21D;70668;48.81286795;9.14184224;2023-12-14T10:27:14;8.36;104.10
216;HTU21D;70668;48.81286795;9.14184224;2023-12-14T10:29:42;8.38;103.48
216;HTU21D;70668;48.81286795;9.14184224;2023-12-14T10:32:12;8.43;103.12
216;HTU21D;70668;48.81286795;9.14184224;2023-12-14T10:34:40;8.32;103.52
216;HTU21D;70668;48.81286795;9.14184224;2023-12-14T10:37:09;8.33;102.65
216;HTU21D;70668;48.81286795;9.14184224;2023-12-14T10:39:42;8.24;102.40
216;HTU21D;70668;48.81286795;9.14184224;2023-12-14T10:42:12;8.33;102.57
216;HTU21D;70668;48.81286795;9.14184224;2023-12-14T10:44:42;8.30;103.07
216;HTU21D;70668;48.81286795;9.14184224;2023-12-14T10:47:11;8.36;103.31
216;HTU21D;70668;48.81286795;9.14184224;2023-12-14T10:49:41;8.37;102.80
216;HTU21D;70668;48.81286795;9.14184224;2023-12-14T10:52:10;8.49;102.37
216;HTU21D;70668;48.81286795;9.14184224;2023-12-14T10:54:43;8.56;101.61
216;HTU21D;70668;48.81286795;9.14184224;2023-12-14T10:57:12;8.66;101.41
216;HTU21D;70668;48.81286795;9.14184224;2023-12-14T10:59:41;8.50;101.19
216;HTU21D;70668;48.81286795;9.14184224;2023-12-14T11:02:10;8.50;101.83
216;HTU21D;70668;48.81286795;9.14184224;2023-12-14T11:04:56;8.46;102.61
216;HTU21D;70668;48.81286795;9.14184224;2023-12-14T11:07:44;8.61;100.86
216;HTU21D;70668;48.81286795;9.14184224;2023-12-14T11:10:20;8.52;101.91
216;HTU21D;70668;48.81286795;9.14184224;2023-12-14T11:12:51;8.49;102.22
216;HTU21D;70668;48.81286795;9.14184224;2023-12-14T11:15:20;8.34;101.73
216;HTU21D;70668;48.81286795;9.14184224;2023-12-14T11:18:20;8.35;100.02
216;HTU21D;70668;48.81286795;9.14184224;2023-12-14T11:20:51;8.56;101.36
216;HTU21D;70668;48.81286795;9.14184224;2023-12-14T11:23:28;8.64;100.53
216;HTU21D;70668;48.81286795;9.14184224;2023-12-14T11:26:01;8.58;100.14
216;HTU21D;70668;48.81286795;9.14184224;2023-12-14T11:28:32;8.29;101.19
216;HTU21D;70668;48.81286795;9.14184224;2023-12-14T11:31:01;8.36;101.10
216;HTU21D;70668;48.81286795;9.14184224;2023-12-14T11:33:32;8.30;100.22
216;HTU21D;70668;48.81286795;9.14184224;2023-12-14T11:36:02;8.36;99.72
216;HTU21D;70668;48.81286795;9.14184224;2023-12-14T11:38:32;8.51;100.12
216;HTU21D;70668;48.81286795;9.14184224;2023-12-14T11:41:03;8.38;100.98
216;HTU21D;70668;48.81286795;9.14184224;2023-12-14T11:43:39;8.42;100.35
216;HTU21D;70668;48.81286795;9.14184224;2023-12-14T11:46:07;8.43;98.87
216;HTU21D;70668;48.81286795;9.14184224;2023-12-14T11:48:36;8.50;99.06
216;HTU21D;70668;48.81286795;9.14184224;2023-12-14T11:51:05;8.50;99.13
216;HTU21D;70668;48.81286795;9.14184224;2023-12-14T11:53:33;8.62;98.00
216;HTU21D;70668;48.81286795;9.14184224;2023-12-14T11:56:08;8.71;98.27
216;HTU21D;70668;48.81286795;9.14184224;2023-12-14T11:58:36;8.85;92.28
216;HTU21D;70668;48.81286795;9.14184224;2023-12-14T12:01:12;9.00;90.86
216;HTU21D;70668;48.81286795;9.14184224;2023-12-14T12:03:42;8.57;90.05
216;HTU21D;70668;48.81286795;9.14184224;2023-12-14T12:06:19;8.71;89.26
216;HTU21D;70668;48.81286795;9.14184224;2023-12-14T12:08:48;8.63;91.20
216;HTU21D;70668;48.81286795;9.14184224;2023-12-14T12:11:21;8.31;92.37
216;HTU21D;70668;48.81286795;9.14184224;2023-12-14T12:13:51;8.28;93.66
216;HTU21D;70668;48.81286795;9.14184224;2023-12-14T12:16:20;8.28;94.15
216;HTU21D;70668;48.81286795;9.14184224;2023-12-14T12:18:48;8.16;95.01
216;HTU21D;70668;48.81286795;9.14184224;2023-12-14T12:21:17;8.14;95.72
216;HTU21D;70668;48.81286795;9.14184224;2023-12-14T12:23:46;8.23;96.05
216;HTU21D;70668;48.81286795;9.14184224;2023-12-14T12:26:14;8.21;93.75
216;HTU21D;70668;48.81286795;9.14184224;2023-12-14T12:28:45;8.31;95.32
216;HTU21D;70668;48.81286795;9.14184224;2023-12-14T12:31:14;8.24;95.99
216;HTU21D;70668;48.81286795;9.14184224;2023-12-14T12:33:42;8.04;94.92
216;HTU21D;70668;48.81286795;9.14184224;2023-12-14T12:36:11;8.17;94.95
216;HTU21D;70668;48.81286795;9.14184224;2023-12-14T12:38:40;8.11;93.76
216;HTU21D;70668;48.81286795;9.14184224;2023-12-14T12:41:09;8.19;93.85
216;HTU21D;70668;48.81286795;9.14184224;2023-12-14T12:43:37;8.09;93.14
216;HTU21D;70668;48.81286795;9.14184224;2023-12-14T12:46:08;8.17;93.62
216;HTU21D;70668;48.81286795;9.14184224;2023-12-14T12:48:37;8.29;94.75
216;HTU21D;70668;48.81286795;9.14184224;2023-12-14T12:51:05;8.15;97.30
216;HTU21D;70668;48.81286795;9.14184224;2023-12-14T12:53:34;8.23;95.84
216;HTU21D;70668;48.81286795;9.14184224;2023-12-14T12:56:03;8.21;95.24
216;HTU21D;70668;48.81286795;9.14184224;2023-12-14T12:58:31;8.36;96.67
216;HTU21D;70668;48.81286795;9.14184224;2023-12-14T13:01:00;8.17;98.87
216;HTU21D;70668;48.81286795;9.14184224;2023-12-14T13:03:31;8.18;100.26
216;HTU21D;70668;48.81286795;9.14184224;2023-12-14T13:05:59;8.18;101.19
216;HTU21D;70668;48.81286795;9.14184224;2023-12-14T13:08:28;7.89;102.58
216;HTU21D;70668;48.81286795;9.14184224;2023-12-14T13:10:57;7.86;104.03
216;HTU21D;70668;48.81286795;9.14184224;2023-12-14T13:13:25;8.01;104.01
216;HTU21D;70668;48.81286795;9.14184224;2023-12-14T13:15:54;7.84;104.50
216;HTU21D;70668;48.81286795;9.14184224;2023-12-14T13:18:22;7.75;104.40
216;HTU21D;70668;48.81286795;9.14184224;2023-12-14T13:20:53;7.84;104.13
216;HTU21D;70668;48.81286795;9.14184224;2023-12-14T13:23:23;7.73;104.70
216;HTU21D;70668;48.81286795;9.14184224;2023-12-14T13:25:51;7.75;103.44
216;HTU21D;70668;48.81286795;9.14184224;2023-12-14T13:28:20;7.76;102.45
216;HTU21D;70668;48.81286795;9.14184224;2023-12-14T13:30:49;7.69;105.61
216;HTU21D;70668;48.81286795;9.14184224;2023-12-14T13:33:17;7.67;105.53
216;HTU21D;70668;48.81286795;9.14184224;2023-12-14T13:35:45;7.57;104.73
216;HTU21D;70668;48.81286795;9.14184224;2023-12-14T13:38:16;7.47;105.84
216;HTU21D;70668;48.81286795;9.14184224;2023-12-14T13:40:45;7.37;104.53
216;HTU21D;70668;48.81286795;9.14184224;2023-12-14T13:43:13;7.28;104.95
216;HTU21D;70668;48.81286795;9.14184224;2023-12-14T13:45:43;7.56;105.05